createdAt,value
2018-06-29T00:07:51.276Z,3
2018-06-29T00:18:09.685Z,2.2
2018-06-29T00:28:43.426Z,2.4
2018-06-29T00:39:03.821Z,2.1
2018-06-29T00:49:32.172Z,2.5
2018-06-29T00:59:43.692Z,2.5
2018-06-29T01:10:02.599Z,3.3
2018-06-29T01:20:20.940Z,4.9
2018-06-29T01:30:45.036Z,3
2018-06-29T01:40:56.286Z,4.4
2018-06-29T01:51:12.302Z,3.7
2018-06-29T02:01:28.835Z,3.1
2018-06-29T02:11:49.399Z,3
2018-06-29T02:22:08.694Z,3.2
2018-06-29T02:32:23.746Z,3.5
2018-06-29T02:42:26.781Z,3
2018-06-29T02:52:31.153Z,2.6
2018-06-29T03:02:32.192Z,2.9
2018-06-29T03:12:32.505Z,2.6
2018-06-29T03:22:33.044Z,3.2
2018-06-29T03:32:33.498Z,2.7
2018-06-29T03:42:33.751Z,1.9
2018-06-29T03:52:33.513Z,2.2
2018-06-29T04:02:33.955Z,1.7
2018-06-29T04:12:33.650Z,2
2018-06-29T04:22:36.125Z,2
2018-06-29T04:32:36.034Z,2
2018-06-29T04:42:36.176Z,3.8
2018-06-29T04:52:38.572Z,1.8
2018-06-29T05:02:38.261Z,1.8
2018-06-29T05:57:04.415Z,1.8
2018-06-29T06:07:22.686Z,1.6
2018-06-29T06:17:50.824Z,1.8
2018-06-29T06:27:57.365Z,2.8
2018-06-29T06:38:12.177Z,1.6
2018-06-29T06:48:23.381Z,2.2
2018-06-29T06:58:35.864Z,2
2018-06-29T07:08:43.774Z,2
2018-06-29T07:18:57.716Z,2.7
2018-06-29T07:29:03.400Z,1.1
2018-06-29T07:39:16.697Z,1.6
2018-06-29T07:49:33.625Z,3.3
2018-06-29T07:59:48.495Z,1.5
2018-06-29T08:10:01.918Z,1.7
2018-06-29T08:20:30.399Z,1.7
2018-06-29T08:30:51.766Z,1.6
2018-06-29T08:41:32.320Z,2.3
2018-06-29T08:51:40.854Z,1.8
2018-06-29T09:01:48.045Z,1.7
2018-06-29T09:11:57.703Z,1.5
2018-06-29T09:22:11.130Z,1.9
2018-06-29T09:32:20.947Z,1.9
2018-06-29T09:42:34.371Z,3.3
2018-06-29T09:52:47.446Z,4.2
2018-06-29T10:03:11.981Z,3.6
2018-06-29T10:13:30.450Z,4.2
2018-06-29T10:24:34.576Z,3.9
2018-06-29T10:35:06.705Z,4.7
2018-06-29T10:45:15.774Z,3.2
2018-06-29T10:55:27.539Z,4.7
2018-06-29T11:05:43.575Z,4.2
2018-06-29T11:15:49.385Z,3.9
2018-06-29T11:26:01.473Z,3.5
2018-06-29T11:36:02.411Z,4.1
2018-06-29T11:46:05.908Z,11.4
2018-06-29T11:56:28.223Z,4.9
2018-06-29T12:07:12.315Z,7.9
2018-06-29T12:17:29.248Z,4.3
2018-06-29T12:27:39.811Z,3.4
2018-06-29T12:38:08.325Z,2.9
2018-06-29T12:48:12.030Z,5.2
2018-06-29T12:58:41.696Z,5.3
2018-06-29T13:08:52.874Z,4.1
2018-06-29T13:18:52.715Z,3
2018-06-29T13:29:05.794Z,4.4
2018-06-29T13:39:10.897Z,4.2
2018-06-29T13:49:15.657Z,5.9
2018-06-29T13:59:21.255Z,3.5
2018-06-29T14:09:23.136Z,3.4
2018-06-29T14:19:31.812Z,3.8
2018-06-29T14:29:35.234Z,4.4
2018-06-29T14:39:43.086Z,3.6
2018-06-29T14:49:50.029Z,5.5
2018-06-29T14:59:57.666Z,6.1
2018-06-29T15:10:08.042Z,5.8
2018-06-29T15:20:14.400Z,5.8
2018-06-29T15:30:39.869Z,10.7
2018-06-29T15:41:30.454Z,8.4
2018-06-29T15:52:09.919Z,7.8
2018-06-29T16:02:12.228Z,9.1
2018-06-29T16:12:29.002Z,13.2
2018-06-29T16:22:33.832Z,11.5
2018-06-29T16:32:33.962Z,15.4
2018-06-29T16:42:46.341Z,11.3
2018-06-29T16:52:57.350Z,12.5
2018-06-29T17:03:24.126Z,9.3
2018-06-29T17:13:40.674Z,9.5
2018-06-29T17:23:53.856Z,7.8
2018-06-29T17:34:22.271Z,8.6
2018-06-29T17:44:36.746Z,8.2
2018-06-29T17:54:41.657Z,7.4
2018-06-29T18:04:58.109Z,6.7
2018-06-29T18:15:07.614Z,7.1
2018-06-29T18:25:14.840Z,6.7
2018-06-29T18:35:23.290Z,6.8
2018-06-29T18:45:30.440Z,8.3
2018-06-29T18:55:31.320Z,8.6
2018-06-29T19:05:32.692Z,7.5
2018-06-29T19:15:40.481Z,8.5
2018-06-29T19:25:44.590Z,8.9
2018-06-29T19:35:46.300Z,9
2018-06-29T19:45:49.166Z,10.7
2018-06-29T19:55:57.379Z,11.8
2018-06-29T20:06:07.048Z,9.5
2018-06-29T20:16:18.420Z,11.2
2018-06-29T20:26:33.624Z,10.7
2018-06-29T20:36:47.645Z,9.5
2018-06-29T20:47:00.597Z,10.2
2018-06-29T20:57:02.139Z,9.4
2018-06-29T21:07:05.134Z,9.2
2018-06-29T21:17:05.745Z,8.9
2018-06-29T21:27:27.716Z,8.4
2018-06-29T21:37:37.589Z,11.7
2018-06-29T21:47:41.440Z,10.3
2018-06-29T21:57:42.968Z,10.1
2018-06-29T22:07:43.560Z,8.7
2018-06-29T22:17:43.433Z,9.5
2018-06-29T22:27:43.558Z,9.6
2018-06-29T22:37:53.016Z,8.7
2018-06-29T22:47:56.266Z,8.1
2018-06-29T22:57:56.013Z,6.8
2018-06-29T23:07:56.269Z,7.8
2018-06-29T23:17:58.747Z,7.5
2018-06-29T23:28:01.354Z,6.9
2018-06-29T23:38:04.669Z,6
2018-06-29T23:48:06.467Z,9.2
2018-06-29T23:58:07.228Z,9.3
